sensor_id;sensor_type;location;lat;lon;timestamp;P1;durP1;ratioP1;P2;durP2;ratioP2
18290;SDS011;9271;48.590;8.866;2023-05-29T00:01:26;7.53;;;5.30;;
18290;SDS011;9271;48.590;8.866;2023-05-29T00:03:53;7.07;;;5.17;;
18290;SDS011;9271;48.590;8.866;2023-05-29T00:06:20;9.60;;;5.03;;
18290;SDS011;9271;48.590;8.866;2023-05-29T00:08:48;7.63;;;5.40;;
18290;SDS011;9271;48.590;8.866;2023-05-29T00:11:15;7.23;;;5.17;;
18290;SDS011;9271;48.590;8.866;2023-05-29T00:13:43;8.27;;;5.20;;
18290;SDS011;9271;48.590;8.866;2023-05-29T00:16:10;9.07;;;5.17;;
18290;SDS011;9271;48.590;8.866;2023-05-29T00:18:42;7.10;;;5.10;;
18290;SDS011;9271;48.590;8.866;2023-05-29T00:21:12;8.00;;;4.80;;
18290;SDS011;9271;48.590;8.866;2023-05-29T00:23:40;7.13;;;4.70;;
18290;SDS011;9271;48.590;8.866;2023-05-29T00:26:11;9.87;;;5.67;;
18290;SDS011;9271;48.590;8.866;2023-05-29T00:28:38;7.93;;;5.53;;
18290;SDS011;9271;48.590;8.866;2023-05-29T00:31:07;8.07;;;5.20;;
18290;SDS011;9271;48.590;8.866;2023-05-29T00:33:33;7.70;;;6.17;;
18290;SDS011;9271;48.590;8.866;2023-05-29T00:36:00;6.97;;;5.27;;
18290;SDS011;9271;48.590;8.866;2023-05-29T00:38:27;11.07;;;5.40;;
18290;SDS011;9271;48.590;8.866;2023-05-29T00:40:54;7.80;;;4.87;;
18290;SDS011;9271;48.590;8.866;2023-05-29T00:43:24;6.70;;;4.60;;
18290;SDS011;9271;48.590;8.866;2023-05-29T00:45:50;7.30;;;5.00;;
18290;SDS011;9271;48.590;8.866;2023-05-29T00:48:19;9.30;;;4.90;;
18290;SDS011;9271;48.590;8.866;2023-05-29T00:50:46;7.47;;;4.97;;
18290;SDS011;9271;48.590;8.866;2023-05-29T00:53:13;7.23;;;4.87;;
18290;SDS011;9271;48.590;8.866;2023-05-29T00:55:41;7.17;;;5.17;;
18290;SDS011;9271;48.590;8.866;2023-05-29T00:58:08;6.87;;;4.80;;
18290;SDS011;9271;48.590;8.866;2023-05-29T01:00:35;5.40;;;4.60;;
18290;SDS011;9271;48.590;8.866;2023-05-29T01:03:05;6.77;;;4.93;;
18290;SDS011;9271;48.590;8.866;2023-05-29T01:05:35;5.80;;;4.47;;
18290;SDS011;9271;48.590;8.866;2023-05-29T01:08:02;7.03;;;5.20;;
18290;SDS011;9271;48.590;8.866;2023-05-29T01:10:29;8.67;;;5.13;;
18290;SDS011;9271;48.590;8.866;2023-05-29T01:12:57;7.37;;;5.47;;
18290;SDS011;9271;48.590;8.866;2023-05-29T01:15:32;7.67;;;4.93;;
18290;SDS011;9271;48.590;8.866;2023-05-29T01:18:07;7.00;;;4.57;;
18290;SDS011;9271;48.590;8.866;2023-05-29T01:20:50;6.87;;;4.80;;
18290;SDS011;9271;48.590;8.866;2023-05-29T01:23:23;6.83;;;5.00;;
18290;SDS011;9271;48.590;8.866;2023-05-29T01:26:07;6.13;;;4.80;;
18290;SDS011;9271;48.590;8.866;2023-05-29T01:28:44;6.40;;;4.60;;
18290;SDS011;9271;48.590;8.866;2023-05-29T01:31:14;6.83;;;4.60;;
18290;SDS011;9271;48.590;8.866;2023-05-29T01:33:46;9.03;;;5.10;;
18290;SDS011;9271;48.590;8.866;2023-05-29T01:36:18;10.30;;;5.00;;
18290;SDS011;9271;48.590;8.866;2023-05-29T01:38:45;7.30;;;4.90;;
18290;SDS011;9271;48.590;8.866;2023-05-29T01:41:15;6.40;;;4.37;;
18290;SDS011;9271;48.590;8.866;2023-05-29T01:43:44;6.23;;;4.77;;
18290;SDS011;9271;48.590;8.866;2023-05-29T01:46:12;6.30;;;4.87;;
18290;SDS011;9271;48.590;8.866;2023-05-29T01:48:40;6.90;;;4.70;;
18290;SDS011;9271;48.590;8.866;2023-05-29T01:51:07;9.00;;;4.70;;
18290;SDS011;9271;48.590;8.866;2023-05-29T01:53:36;7.63;;;4.57;;
18290;SDS011;9271;48.590;8.866;2023-05-29T01:56:03;7.97;;;4.60;;
18290;SDS011;9271;48.590;8.866;2023-05-29T01:58:31;6.17;;;4.53;;
18290;SDS011;9271;48.590;8.866;2023-05-29T02:01:01;7.00;;;4.53;;
18290;SDS011;9271;48.590;8.866;2023-05-29T02:03:28;4.93;;;4.37;;
18290;SDS011;9271;48.590;8.866;2023-05-29T02:05:56;6.50;;;4.60;;
18290;SDS011;9271;48.590;8.866;2023-05-29T02:08:23;8.10;;;5.30;;
18290;SDS011;9271;48.590;8.866;2023-05-29T02:10:50;6.87;;;4.73;;
18290;SDS011;9271;48.590;8.866;2023-05-29T02:13:18;6.13;;;4.73;;
18290;SDS011;9271;48.590;8.866;2023-05-29T02:15:45;7.90;;;5.20;;
18290;SDS011;9271;48.590;8.866;2023-05-29T02:18:14;10.70;;;4.87;;
18290;SDS011;9271;48.590;8.866;2023-05-29T02:20:44;5.73;;;4.70;;
18290;SDS011;9271;48.590;8.866;2023-05-29T02:23:11;8.30;;;5.37;;
18290;SDS011;9271;48.590;8.866;2023-05-29T02:25:40;6.77;;;4.73;;
18290;SDS011;9271;48.590;8.866;2023-05-29T02:28:07;8.27;;;4.87;;
18290;SDS011;9271;48.590;8.866;2023-05-29T02:30:34;5.40;;;4.40;;
18290;SDS011;9271;48.590;8.866;2023-05-29T02:33:04;6.43;;;4.77;;
18290;SDS011;9271;48.590;8.866;2023-05-29T02:35:33;8.63;;;5.00;;
18290;SDS011;9271;48.590;8.866;2023-05-29T02:38:00;6.80;;;4.80;;
18290;SDS011;9271;48.590;8.866;2023-05-29T02:40:27;5.87;;;4.70;;
18290;SDS011;9271;48.590;8.866;2023-05-29T02:42:55;9.07;;;4.50;;
18290;SDS011;9271;48.590;8.866;2023-05-29T02:45:22;5.67;;;4.73;;
18290;SDS011;9271;48.590;8.866;2023-05-29T02:47:49;9.70;;;4.87;;
18290;SDS011;9271;48.590;8.866;2023-05-29T02:50:16;5.57;;;4.40;;
18290;SDS011;9271;48.590;8.866;2023-05-29T02:52:44;8.40;;;5.27;;
18290;SDS011;9271;48.590;8.866;2023-05-29T02:55:11;8.87;;;5.03;;
18290;SDS011;9271;48.590;8.866;2023-05-29T02:57:38;6.00;;;5.00;;
18290;SDS011;9271;48.590;8.866;2023-05-29T03:00:06;6.60;;;4.97;;
18290;SDS011;9271;48.590;8.866;2023-05-29T03:02:34;7.70;;;5.07;;
18290;SDS011;9271;48.590;8.866;2023-05-29T03:05:01;5.40;;;4.50;;
18290;SDS011;9271;48.590;8.866;2023-05-29T03:07:28;6.07;;;4.90;;
18290;SDS011;9271;48.590;8.866;2023-05-29T03:09:57;6.37;;;4.53;;
18290;SDS011;9271;48.590;8.866;2023-05-29T03:12:25;7.77;;;5.10;;
18290;SDS011;9271;48.590;8.866;2023-05-29T03:14:52;6.77;;;5.07;;
18290;SDS011;9271;48.590;8.866;2023-05-29T03:17:21;6.17;;;4.67;;
18290;SDS011;9271;48.590;8.866;2023-05-29T03:19:48;7.20;;;4.70;;
18290;SDS011;9271;48.590;8.866;2023-05-29T03:22:16;7.73;;;5.10;;
18290;SDS011;9271;48.590;8.866;2023-05-29T03:24:42;5.70;;;4.53;;
18290;SDS011;9271;48.590;8.866;2023-05-29T03:27:11;7.10;;;4.47;;
18290;SDS011;9271;48.590;8.866;2023-05-29T03:29:38;6.73;;;4.70;;
18290;SDS011;9271;48.590;8.866;2023-05-29T03:32:04;7.97;;;5.27;;
18290;SDS011;9271;48.590;8.866;2023-05-29T03:34:31;11.20;;;5.90;;
18290;SDS011;9271;48.590;8.866;2023-05-29T03:36:59;4.80;;;4.23;;
18290;SDS011;9271;48.590;8.866;2023-05-29T03:39:27;7.30;;;5.37;;
18290;SDS011;9271;48.590;8.866;2023-05-29T03:41:53;9.53;;;5.43;;
18290;SDS011;9271;48.590;8.866;2023-05-29T03:44:22;7.10;;;5.23;;
18290;SDS011;9271;48.590;8.866;2023-05-29T03:46:49;10.03;;;5.37;;
18290;SDS011;9271;48.590;8.866;2023-05-29T03:49:17;8.13;;;5.30;;
18290;SDS011;9271;48.590;8.866;2023-05-29T03:51:44;8.73;;;5.30;;
18290;SDS011;9271;48.590;8.866;2023-05-29T03:54:11;6.77;;;5.20;;
18290;SDS011;9271;48.590;8.866;2023-05-29T03:56:38;6.53;;;4.60;;
18290;SDS011;9271;48.590;8.866;2023-05-29T03:59:05;6.47;;;5.13;;
18290;SDS011;9271;48.590;8.866;2023-05-29T04:01:33;8.03;;;5.37;;
18290;SDS011;9271;48.590;8.866;2023-05-29T04:04:01;7.07;;;4.93;;
18290;SDS011;9271;48.590;8.866;2023-05-29T04:06:27;7.40;;;5.20;;
18290;SDS011;9271;48.590;8.866;2023-05-29T04:08:54;6.27;;;5.23;;
18290;SDS011;9271;48.590;8.866;2023-05-29T04:11:22;6.93;;;5.03;;
18290;SDS011;9271;48.590;8.866;2023-05-29T04:13:49;6.60;;;5.27;;
18290;SDS011;9271;48.590;8.866;2023-05-29T04:16:16;6.47;;;5.20;;
18290;SDS011;9271;48.590;8.866;2023-05-29T04:18:44;9.43;;;5.23;;
18290;SDS011;9271;48.590;8.866;2023-05-29T04:21:11;7.93;;;5.43;;
18290;SDS011;9271;48.590;8.866;2023-05-29T04:23:38;7.37;;;4.73;;
18290;SDS011;9271;48.590;8.866;2023-05-29T04:26:05;9.40;;;5.17;;
18290;SDS011;9271;48.590;8.866;2023-05-29T04:28:32;6.60;;;5.07;;
18290;SDS011;9271;48.590;8.866;2023-05-29T04:30:59;7.80;;;5.57;;
18290;SDS011;9271;48.590;8.866;2023-05-29T04:33:26;5.37;;;4.50;;
18290;SDS011;9271;48.590;8.866;2023-05-29T04:35:54;7.53;;;5.07;;
18290;SDS011;9271;48.590;8.866;2023-05-29T04:38:21;6.77;;;4.97;;
18290;SDS011;9271;48.590;8.866;2023-05-29T04:40:50;7.47;;;4.83;;
18290;SDS011;9271;48.590;8.866;2023-05-29T04:43:17;9.53;;;5.10;;
18290;SDS011;9271;48.590;8.866;2023-05-29T04:45:44;6.77;;;4.70;;
18290;SDS011;9271;48.590;8.866;2023-05-29T04:48:10;5.93;;;4.60;;
18290;SDS011;9271;48.590;8.866;2023-05-29T04:50:37;7.77;;;5.07;;
18290;SDS011;9271;48.590;8.866;2023-05-29T04:53:05;6.33;;;4.60;;
18290;SDS011;9271;48.590;8.866;2023-05-29T04:55:32;5.17;;;4.50;;
18290;SDS011;9271;48.590;8.866;2023-05-29T04:57:59;6.47;;;4.60;;
18290;SDS011;9271;48.590;8.866;2023-05-29T05:00:26;6.23;;;4.97;;
18290;SDS011;9271;48.590;8.866;2023-05-29T05:02:52;6.70;;;4.70;;
18290;SDS011;9271;48.590;8.866;2023-05-29T05:05:20;6.37;;;4.83;;
18290;SDS011;9271;48.590;8.866;2023-05-29T05:07:47;5.73;;;4.37;;
18290;SDS011;9271;48.590;8.866;2023-05-29T05:10:14;5.97;;;4.03;;
18290;SDS011;9271;48.590;8.866;2023-05-29T05:12:41;5.20;;;4.10;;
18290;SDS011;9271;48.590;8.866;2023-05-29T05:15:08;6.07;;;4.03;;
18290;SDS011;9271;48.590;8.866;2023-05-29T05:17:36;5.63;;;4.47;;
18290;SDS011;9271;48.590;8.866;2023-05-29T05:20:02;7.57;;;4.57;;
18290;SDS011;9271;48.590;8.866;2023-05-29T05:22:30;6.43;;;4.23;;
18290;SDS011;9271;48.590;8.866;2023-05-29T05:24:57;6.07;;;4.53;;
18290;SDS011;9271;48.590;8.866;2023-05-29T05:27:26;7.77;;;4.87;;
18290;SDS011;9271;48.590;8.866;2023-05-29T05:29:53;8.43;;;4.40;;
18290;SDS011;9271;48.590;8.866;2023-05-29T05:32:20;7.07;;;4.80;;
18290;SDS011;9271;48.590;8.866;2023-05-29T05:34:46;6.17;;;4.90;;
18290;SDS011;9271;48.590;8.866;2023-05-29T05:37:13;5.87;;;4.33;;
18290;SDS011;9271;48.590;8.866;2023-05-29T05:39:39;6.87;;;4.27;;
18290;SDS011;9271;48.590;8.866;2023-05-29T05:42:06;5.53;;;4.90;;
18290;SDS011;9271;48.590;8.866;2023-05-29T05:44:34;5.17;;;4.30;;
18290;SDS011;9271;48.590;8.866;2023-05-29T05:47:01;5.67;;;4.33;;
18290;SDS011;9271;48.590;8.866;2023-05-29T05:49:28;6.40;;;4.43;;
18290;SDS011;9271;48.590;8.866;2023-05-29T05:51:55;5.50;;;4.37;;
18290;SDS011;9271;48.590;8.866;2023-05-29T05:54:22;5.93;;;4.10;;
18290;SDS011;9271;48.590;8.866;2023-05-29T05:56:48;5.30;;;4.03;;
18290;SDS011;9271;48.590;8.866;2023-05-29T05:59:15;5.13;;;4.40;;
18290;SDS011;9271;48.590;8.866;2023-05-29T06:01:43;5.73;;;4.23;;
18290;SDS011;9271;48.590;8.866;2023-05-29T06:04:10;7.43;;;4.20;;
18290;SDS011;9271;48.590;8.866;2023-05-29T06:06:36;5.50;;;4.23;;
18290;SDS011;9271;48.590;8.866;2023-05-29T06:09:03;4.97;;;4.17;;
18290;SDS011;9271;48.590;8.866;2023-05-29T06:11:30;5.33;;;4.07;;
18290;SDS011;9271;48.590;8.866;2023-05-29T06:13:57;5.63;;;4.17;;
18290;SDS011;9271;48.590;8.866;2023-05-29T06:16:24;4.97;;;3.80;;
18290;SDS011;9271;48.590;8.866;2023-05-29T06:18:53;7.17;;;4.60;;
18290;SDS011;9271;48.590;8.866;2023-05-29T06:21:19;5.83;;;3.97;;
18290;SDS011;9271;48.590;8.866;2023-05-29T06:23:46;4.30;;;3.87;;
18290;SDS011;9271;48.590;8.866;2023-05-29T06:26:13;4.63;;;3.87;;
18290;SDS011;9271;48.590;8.866;2023-05-29T06:28:40;5.53;;;4.27;;
18290;SDS011;9271;48.590;8.866;2023-05-29T06:31:07;7.03;;;3.77;;
18290;SDS011;9271;48.590;8.866;2023-05-29T06:33:35;7.17;;;4.07;;
18290;SDS011;9271;48.590;8.866;2023-05-29T06:36:03;5.40;;;4.00;;
18290;SDS011;9271;48.590;8.866;2023-05-29T06:38:30;5.37;;;3.67;;
18290;SDS011;9271;48.590;8.866;2023-05-29T06:40:57;5.30;;;4.10;;
18290;SDS011;9271;48.590;8.866;2023-05-29T06:43:23;6.03;;;4.00;;
18290;SDS011;9271;48.590;8.866;2023-05-29T06:45:50;6.93;;;4.20;;
18290;SDS011;9271;48.590;8.866;2023-05-29T06:48:17;5.40;;;4.23;;
18290;SDS011;9271;48.590;8.866;2023-05-29T06:50:43;6.70;;;4.30;;
18290;SDS011;9271;48.590;8.866;2023-05-29T06:53:12;6.33;;;4.43;;
18290;SDS011;9271;48.590;8.866;2023-05-29T06:55:38;5.33;;;4.00;;
18290;SDS011;9271;48.590;8.866;2023-05-29T06:58:06;5.97;;;4.13;;
18290;SDS011;9271;48.590;8.866;2023-05-29T07:00:32;5.67;;;3.70;;
18290;SDS011;9271;48.590;8.866;2023-05-29T07:02:59;4.63;;;3.93;;
18290;SDS011;9271;48.590;8.866;2023-05-29T07:05:26;8.50;;;4.33;;
18290;SDS011;9271;48.590;8.866;2023-05-29T07:07:52;5.20;;;4.00;;
18290;SDS011;9271;48.590;8.866;2023-05-29T07:10:20;7.67;;;4.10;;
18290;SDS011;9271;48.590;8.866;2023-05-29T07:12:47;6.40;;;4.50;;
18290;SDS011;9271;48.590;8.866;2023-05-29T07:15:14;5.23;;;4.37;;
18290;SDS011;9271;48.590;8.866;2023-05-29T07:17:40;6.20;;;4.23;;
18290;SDS011;9271;48.590;8.866;2023-05-29T07:20:07;7.07;;;3.97;;
18290;SDS011;9271;48.590;8.866;2023-05-29T07:22:34;6.03;;;4.20;;
18290;SDS011;9271;48.590;8.866;2023-05-29T07:25:02;5.10;;;3.90;;
18290;SDS011;9271;48.590;8.866;2023-05-29T07:27:30;5.83;;;4.10;;
18290;SDS011;9271;48.590;8.866;2023-05-29T07:29:57;7.23;;;4.23;;
18290;SDS011;9271;48.590;8.866;2023-05-29T07:32:24;5.67;;;4.00;;
18290;SDS011;9271;48.590;8.866;2023-05-29T07:34:50;7.33;;;4.37;;
18290;SDS011;9271;48.590;8.866;2023-05-29T07:37:17;7.23;;;4.70;;
18290;SDS011;9271;48.590;8.866;2023-05-29T07:39:44;9.03;;;4.40;;
18290;SDS011;9271;48.590;8.866;2023-05-29T07:42:11;5.33;;;3.77;;
18290;SDS011;9271;48.590;8.866;2023-05-29T07:44:39;9.83;;;4.77;;
18290;SDS011;9271;48.590;8.866;2023-05-29T07:47:06;5.77;;;4.30;;
18290;SDS011;9271;48.590;8.866;2023-05-29T07:49:33;7.57;;;4.50;;
18290;SDS011;9271;48.590;8.866;2023-05-29T07:52:00;6.03;;;4.30;;
18290;SDS011;9271;48.590;8.866;2023-05-29T07:54:27;4.67;;;4.23;;
18290;SDS011;9271;48.590;8.866;2023-05-29T07:56:54;5.63;;;4.37;;
18290;SDS011;9271;48.590;8.866;2023-05-29T07:59:21;4.72;;;4.10;;
18290;SDS011;9271;48.590;8.866;2023-05-29T08:01:49;7.00;;;4.45;;
18290;SDS011;9271;48.590;8.866;2023-05-29T08:04:16;4.75;;;4.25;;
18290;SDS011;9271;48.590;8.866;2023-05-29T08:06:43;7.82;;;4.53;;
18290;SDS011;9271;48.590;8.866;2023-05-29T08:09:10;6.78;;;4.82;;
18290;SDS011;9271;48.590;8.866;2023-05-29T08:11:36;6.63;;;4.22;;
18290;SDS011;9271;48.590;8.866;2023-05-29T08:14:03;6.10;;;4.18;;
18290;SDS011;9271;48.590;8.866;2023-05-29T08:16:30;5.18;;;4.10;;
18290;SDS011;9271;48.590;8.866;2023-05-29T08:18:58;6.07;;;4.30;;
18290;SDS011;9271;48.590;8.866;2023-05-29T08:21:25;5.20;;;4.45;;
18290;SDS011;9271;48.590;8.866;2023-05-29T08:23:52;7.88;;;4.65;;
18290;SDS011;9271;48.590;8.866;2023-05-29T08:26:18;5.05;;;4.60;;
18290;SDS011;9271;48.590;8.866;2023-05-29T08:28:45;4.80;;;4.30;;
18290;SDS011;9271;48.590;8.866;2023-05-29T08:31:12;5.93;;;3.83;;
18290;SDS011;9271;48.590;8.866;2023-05-29T08:33:38;5.68;;;3.72;;
18290;SDS011;9271;48.590;8.866;2023-05-29T08:36:06;5.00;;;4.28;;
18290;SDS011;9271;48.590;8.866;2023-05-29T08:38:33;7.90;;;4.45;;
18290;SDS011;9271;48.590;8.866;2023-05-29T08:41:00;4.80;;;4.30;;
18290;SDS011;9271;48.590;8.866;2023-05-29T08:43:29;4.50;;;4.10;;
18290;SDS011;9271;48.590;8.866;2023-05-29T08:45:59;5.97;;;4.47;;
18290;SDS011;9271;48.590;8.866;2023-05-29T08:48:26;5.95;;;4.38;;
18290;SDS011;9271;48.590;8.866;2023-05-29T08:50:55;6.03;;;4.60;;
18290;SDS011;9271;48.590;8.866;2023-05-29T08:53:24;6.25;;;4.40;;
18290;SDS011;9271;48.590;8.866;2023-05-29T08:55:51;7.32;;;4.57;;
18290;SDS011;9271;48.590;8.866;2023-05-29T08:58:21;4.70;;;4.25;;
18290;SDS011;9271;48.590;8.866;2023-05-29T09:00:48;4.20;;;3.85;;
18290;SDS011;9271;48.590;8.866;2023-05-29T09:03:15;5.05;;;4.20;;
18290;SDS011;9271;48.590;8.866;2023-05-29T09:05:45;4.78;;;4.35;;
18290;SDS011;9271;48.590;8.866;2023-05-29T09:08:12;4.80;;;4.40;;
18290;SDS011;9271;48.590;8.866;2023-05-29T09:10:41;7.93;;;4.78;;
18290;SDS011;9271;48.590;8.866;2023-05-29T09:13:09;4.65;;;4.25;;
18290;SDS011;9271;48.590;8.866;2023-05-29T09:15:36;4.40;;;4.00;;
18290;SDS011;9271;48.590;8.866;2023-05-29T09:18:05;6.80;;;4.75;;
18290;SDS011;9271;48.590;8.866;2023-05-29T09:20:32;5.40;;;4.90;;
18290;SDS011;9271;48.590;8.866;2023-05-29T09:23:01;5.43;;;4.32;;
18290;SDS011;9271;48.590;8.866;2023-05-29T09:25:30;4.95;;;4.32;;
18290;SDS011;9271;48.590;8.866;2023-05-29T09:28:00;6.43;;;4.40;;
18290;SDS011;9271;48.590;8.866;2023-05-29T09:30:31;6.15;;;4.53;;
18290;SDS011;9271;48.590;8.866;2023-05-29T09:32:58;5.80;;;4.13;;
18290;SDS011;9271;48.590;8.866;2023-05-29T09:35:27;4.80;;;4.35;;
18290;SDS011;9271;48.590;8.866;2023-05-29T09:37:59;7.03;;;5.10;;
18290;SDS011;9271;48.590;8.866;2023-05-29T09:40:25;4.85;;;4.35;;
18290;SDS011;9271;48.590;8.866;2023-05-29T09:42:52;5.10;;;4.60;;
18290;SDS011;9271;48.590;8.866;2023-05-29T09:45:21;4.93;;;4.30;;
18290;SDS011;9271;48.590;8.866;2023-05-29T09:47:50;5.88;;;4.10;;
18290;SDS011;9271;48.590;8.866;2023-05-29T09:50:18;4.45;;;4.05;;
18290;SDS011;9271;48.590;8.866;2023-05-29T09:52:46;4.43;;;4.03;;
18290;SDS011;9271;48.590;8.866;2023-05-29T09:55:17;6.30;;;4.50;;
18290;SDS011;9271;48.590;8.866;2023-05-29T09:57:46;4.88;;;3.78;;
18290;SDS011;9271;48.590;8.866;2023-05-29T10:00:14;4.97;;;3.50;;
18290;SDS011;9271;48.590;8.866;2023-05-29T10:02:44;4.93;;;4.18;;
18290;SDS011;9271;48.590;8.866;2023-05-29T10:05:11;5.22;;;4.03;;
18290;SDS011;9271;48.590;8.866;2023-05-29T10:07:40;4.43;;;3.80;;
18290;SDS011;9271;48.590;8.866;2023-05-29T10:10:11;4.50;;;3.78;;
18290;SDS011;9271;48.590;8.866;2023-05-29T10:12:38;6.35;;;4.13;;
18290;SDS011;9271;48.590;8.866;2023-05-29T10:15:11;4.43;;;4.00;;
18290;SDS011;9271;48.590;8.866;2023-05-29T10:17:39;5.63;;;3.88;;
18290;SDS011;9271;48.590;8.866;2023-05-29T10:20:14;5.43;;;4.10;;
18290;SDS011;9271;48.590;8.866;2023-05-29T10:22:44;4.63;;;3.85;;
18290;SDS011;9271;48.590;8.866;2023-05-29T10:25:13;6.75;;;3.97;;
18290;SDS011;9271;48.590;8.866;2023-05-29T10:27:40;6.22;;;4.30;;
18290;SDS011;9271;48.590;8.866;2023-05-29T10:30:09;4.32;;;3.92;;
18290;SDS011;9271;48.590;8.866;2023-05-29T10:32:42;5.57;;;4.13;;
18290;SDS011;9271;48.590;8.866;2023-05-29T10:35:22;6.53;;;4.47;;
18290;SDS011;9271;48.590;8.866;2023-05-29T10:37:54;5.35;;;4.35;;
18290;SDS011;9271;48.590;8.866;2023-05-29T10:40:28;6.50;;;4.40;;
18290;SDS011;9271;48.590;8.866;2023-05-29T10:42:55;4.55;;;4.15;;
18290;SDS011;9271;48.590;8.866;2023-05-29T10:48:36;7.45;;;4.40;;
18290;SDS011;9271;48.590;8.866;2023-05-29T10:51:07;4.53;;;3.83;;
18290;SDS011;9271;48.590;8.866;2023-05-29T10:53:35;4.35;;;3.90;;
18290;SDS011;9271;48.590;8.866;2023-05-29T10:56:07;5.65;;;4.20;;
18290;SDS011;9271;48.590;8.866;2023-05-29T10:58:40;6.00;;;4.05;;
18290;SDS011;9271;48.590;8.866;2023-05-29T11:01:07;8.30;;;4.07;;
18290;SDS011;9271;48.590;8.866;2023-05-29T11:03:34;4.95;;;3.70;;
18290;SDS011;9271;48.590;8.866;2023-05-29T11:06:03;4.20;;;3.83;;
18290;SDS011;9271;48.590;8.866;2023-05-29T11:08:33;6.43;;;3.70;;
18290;SDS011;9271;48.590;8.866;2023-05-29T11:11:00;4.35;;;3.95;;
18290;SDS011;9271;48.590;8.866;2023-05-29T11:13:31;6.25;;;4.30;;
18290;SDS011;9271;48.590;8.866;2023-05-29T11:16:10;4.45;;;4.05;;
18290;SDS011;9271;48.590;8.866;2023-05-29T11:18:40;4.45;;;3.70;;
18290;SDS011;9271;48.590;8.866;2023-05-29T11:21:12;4.75;;;4.15;;
18290;SDS011;9271;48.590;8.866;2023-05-29T11:23:48;5.57;;;3.90;;
18290;SDS011;9271;48.590;8.866;2023-05-29T11:26:17;4.32;;;3.85;;
18290;SDS011;9271;48.590;8.866;2023-05-29T11:28:45;5.68;;;4.00;;
18290;SDS011;9271;48.590;8.866;2023-05-29T11:31:12;7.00;;;3.85;;
18290;SDS011;9271;48.590;8.866;2023-05-29T11:33:47;4.47;;;3.65;;
18290;SDS011;9271;48.590;8.866;2023-05-29T11:36:15;4.25;;;3.72;;
18290;SDS011;9271;48.590;8.866;2023-05-29T11:38:43;4.10;;;3.70;;
18290;SDS011;9271;48.590;8.866;2023-05-29T11:41:10;4.28;;;3.60;;
18290;SDS011;9271;48.590;8.866;2023-05-29T11:43:36;4.55;;;3.70;;
18290;SDS011;9271;48.590;8.866;2023-05-29T11:46:13;5.43;;;3.53;;
18290;SDS011;9271;48.590;8.866;2023-05-29T11:48:45;4.20;;;3.50;;
18290;SDS011;9271;48.590;8.866;2023-05-29T11:51:12;4.88;;;3.35;;
18290;SDS011;9271;48.590;8.866;2023-05-29T11:53:40;5.32;;;3.65;;
18290;SDS011;9271;48.590;8.866;2023-05-29T11:56:08;4.97;;;3.55;;
18290;SDS011;9271;48.590;8.866;2023-05-29T11:58:35;4.10;;;3.80;;
18290;SDS011;9271;48.590;8.866;2023-05-29T12:01:02;4.10;;;3.72;;
18290;SDS011;9271;48.590;8.866;2023-05-29T12:03:29;4.93;;;3.60;;
18290;SDS011;9271;48.590;8.866;2023-05-29T12:05:57;3.75;;;3.10;;
18290;SDS011;9271;48.590;8.866;2023-05-29T12:08:24;5.00;;;3.60;;
18290;SDS011;9271;48.590;8.866;2023-05-29T12:10:51;6.80;;;3.60;;
18290;SDS011;9271;48.590;8.866;2023-05-29T12:13:19;4.20;;;3.65;;
18290;SDS011;9271;48.590;8.866;2023-05-29T12:15:47;6.93;;;3.40;;
18290;SDS011;9271;48.590;8.866;2023-05-29T12:18:15;6.20;;;3.95;;
18290;SDS011;9271;48.590;8.866;2023-05-29T12:20:42;4.18;;;3.78;;
18290;SDS011;9271;48.590;8.866;2023-05-29T12:23:10;3.83;;;3.35;;
18290;SDS011;9271;48.590;8.866;2023-05-29T12:25:37;5.22;;;3.80;;
18290;SDS011;9271;48.590;8.866;2023-05-29T12:28:05;5.15;;;3.65;;
18290;SDS011;9271;48.590;8.866;2023-05-29T12:30:36;4.47;;;3.67;;
18290;SDS011;9271;48.590;8.866;2023-05-29T12:33:03;5.65;;;3.40;;
18290;SDS011;9271;48.590;8.866;2023-05-29T12:35:31;3.97;;;3.60;;
18290;SDS011;9271;48.590;8.866;2023-05-29T12:37:59;4.82;;;3.70;;
18290;SDS011;9271;48.590;8.866;2023-05-29T12:40:28;4.50;;;3.33;;
18290;SDS011;9271;48.590;8.866;2023-05-29T12:42:57;4.10;;;3.50;;
18290;SDS011;9271;48.590;8.866;2023-05-29T12:45:25;3.60;;;3.30;;
18290;SDS011;9271;48.590;8.866;2023-05-29T12:47:53;4.07;;;3.58;;
18290;SDS011;9271;48.590;8.866;2023-05-29T12:50:21;5.35;;;3.17;;
18290;SDS011;9271;48.590;8.866;2023-05-29T12:52:55;4.13;;;3.50;;
18290;SDS011;9271;48.590;8.866;2023-05-29T12:55:23;4.25;;;3.50;;
18290;SDS011;9271;48.590;8.866;2023-05-29T12:57:51;4.07;;;3.67;;
18290;SDS011;9271;48.590;8.866;2023-05-29T13:00:18;3.75;;;3.42;;
18290;SDS011;9271;48.590;8.866;2023-05-29T13:02:46;6.80;;;3.22;;
18290;SDS011;9271;48.590;8.866;2023-05-29T13:05:13;3.50;;;3.20;;
18290;SDS011;9271;48.590;8.866;2023-05-29T13:07:41;3.50;;;3.20;;
18290;SDS011;9271;48.590;8.866;2023-05-29T13:10:08;3.72;;;3.42;;
18290;SDS011;9271;48.590;8.866;2023-05-29T13:12:35;3.83;;;3.03;;
18290;SDS011;9271;48.590;8.866;2023-05-29T13:15:03;3.78;;;3.40;;
18290;SDS011;9271;48.590;8.866;2023-05-29T13:17:31;5.70;;;3.67;;
18290;SDS011;9271;48.590;8.866;2023-05-29T13:19:57;3.78;;;3.45;;
18290;SDS011;9271;48.590;8.866;2023-05-29T13:22:24;5.80;;;3.42;;
18290;SDS011;9271;48.590;8.866;2023-05-29T13:24:55;4.63;;;3.40;;
18290;SDS011;9271;48.590;8.866;2023-05-29T13:27:23;4.13;;;3.58;;
18290;SDS011;9271;48.590;8.866;2023-05-29T13:29:49;3.53;;;3.22;;
18290;SDS011;9271;48.590;8.866;2023-05-29T13:32:17;11.23;;;3.38;;
18290;SDS011;9271;48.590;8.866;2023-05-29T13:34:44;3.67;;;3.38;;
18290;SDS011;9271;48.590;8.866;2023-05-29T13:37:11;6.00;;;3.25;;
18290;SDS011;9271;48.590;8.866;2023-05-29T13:39:38;3.67;;;3.15;;
18290;SDS011;9271;48.590;8.866;2023-05-29T13:42:04;3.72;;;3.42;;
18290;SDS011;9271;48.590;8.866;2023-05-29T13:44:32;3.83;;;3.53;;
18290;SDS011;9271;48.590;8.866;2023-05-29T13:46:59;3.72;;;3.20;;
18290;SDS011;9271;48.590;8.866;2023-05-29T13:49:27;4.43;;;3.28;;
18290;SDS011;9271;48.590;8.866;2023-05-29T13:51:53;3.58;;;3.20;;
18290;SDS011;9271;48.590;8.866;2023-05-29T13:54:20;5.50;;;3.10;;
18290;SDS011;9271;48.590;8.866;2023-05-29T13:56:47;3.38;;;3.08;;
18290;SDS011;9271;48.590;8.866;2023-05-29T13:59:14;3.63;;;3.30;;
18290;SDS011;9271;48.590;8.866;2023-05-29T14:01:41;5.22;;;3.35;;
18290;SDS011;9271;48.590;8.866;2023-05-29T14:04:07;3.75;;;3.42;;
18290;SDS011;9271;48.590;8.866;2023-05-29T14:06:36;6.65;;;2.97;;
18290;SDS011;9271;48.590;8.866;2023-05-29T14:09:03;3.20;;;2.92;;
18290;SDS011;9271;48.590;8.866;2023-05-29T14:11:29;3.30;;;3.00;;
18290;SDS011;9271;48.590;8.866;2023-05-29T14:14:00;4.57;;;3.25;;
18290;SDS011;9271;48.590;8.866;2023-05-29T14:16:26;3.58;;;3.28;;
18290;SDS011;9271;48.590;8.866;2023-05-29T14:18:53;14.02;;;3.00;;
18290;SDS011;9271;48.590;8.866;2023-05-29T14:21:20;3.40;;;3.10;;
18290;SDS011;9271;48.590;8.866;2023-05-29T14:23:48;4.38;;;3.40;;
18290;SDS011;9271;48.590;8.866;2023-05-29T14:26:14;3.88;;;3.47;;
18290;SDS011;9271;48.590;8.866;2023-05-29T14:28:41;4.22;;;3.50;;
18290;SDS011;9271;48.590;8.866;2023-05-29T14:31:08;3.65;;;3.17;;
18290;SDS011;9271;48.590;8.866;2023-05-29T14:33:34;3.50;;;3.20;;
18290;SDS011;9271;48.590;8.866;2023-05-29T14:36:02;3.42;;;3.13;;
18290;SDS011;9271;48.590;8.866;2023-05-29T14:38:29;3.92;;;3.53;;
18290;SDS011;9271;48.590;8.866;2023-05-29T14:40:57;5.00;;;3.40;;
18290;SDS011;9271;48.590;8.866;2023-05-29T14:43:24;3.70;;;3.40;;
18290;SDS011;9271;48.590;8.866;2023-05-29T14:45:50;6.50;;;3.97;;
18290;SDS011;9271;48.590;8.866;2023-05-29T14:48:17;3.83;;;3.28;;
18290;SDS011;9271;48.590;8.866;2023-05-29T14:50:43;6.20;;;3.60;;
18290;SDS011;9271;48.590;8.866;2023-05-29T14:53:10;4.65;;;3.80;;
18290;SDS011;9271;48.590;8.866;2023-05-29T14:55:37;3.88;;;3.58;;
18290;SDS011;9271;48.590;8.866;2023-05-29T14:58:05;4.97;;;3.65;;
18290;SDS011;9271;48.590;8.866;2023-05-29T15:00:32;4.28;;;3.53;;
18290;SDS011;9271;48.590;8.866;2023-05-29T15:02:58;4.03;;;3.60;;
18290;SDS011;9271;48.590;8.866;2023-05-29T15:05:25;3.95;;;3.63;;
18290;SDS011;9271;48.590;8.866;2023-05-29T15:07:52;3.72;;;3.38;;